Time;durP1;ratioP1;P1;durP2;ratioP2;P2;SDS_P1;SDS_P2;PMS_P1;PMS_P2;Temp;Humidity;BMP_temperature;BMP_pressure;BME280_temperature;BME280_humidity;BME280_pressure;Samples;Min_cycle;Max_cycle;Signal;HPM_P1;HPM_P2
2023/03/13 00:01:39;;;;;;;1.90;1.40;;;10.60;99.90;;;;;;4800713;29;20054;-54
2023/03/13 00:04:07;;;;;;;1.30;1.20;;;10.70;99.90;;;;;;4806170;29;20636;-54
2023/03/13 00:06:36;;;;;;;1.58;1.48;;;10.70;99.90;;;;;;4811185;29;20415;-54
2023/03/13 00:09:07;;;;;;;1.80;1.07;;;10.70;99.90;;;;;;4816880;29;20046;-53
2023/03/13 00:11:35;;;;;;;1.98;1.27;;;10.70;99.90;;;;;;4800857;29;20191;-53
2023/03/13 00:14:03;;;;;;;2.97;1.77;;;10.70;99.90;;;;;;4820717;29;20054;-54
2023/03/13 00:16:33;;;;;;;1.60;1.40;;;10.80;99.90;;;;;;4839503;29;20061;-54
2023/03/13 00:19:01;;;;;;;1.70;1.23;;;10.70;99.90;;;;;;4832356;29;20054;-55
2023/03/13 00:21:29;;;;;;;3.47;1.13;;;10.70;99.90;;;;;;4817703;29;20070;-55
2023/03/13 00:23:58;;;;;;;1.70;1.60;;;10.80;99.90;;;;;;4822213;29;20052;-56
2023/03/13 00:26:27;;;;;;;1.20;1.10;;;10.80;99.90;;;;;;4839786;29;20053;-54
2023/03/13 00:28:56;;;;;;;3.03;1.30;;;10.80;99.90;;;;;;4805097;29;20522;-55
2023/03/13 00:31:26;;;;;;;1.55;1.30;;;10.80;99.90;;;;;;4805439;29;20057;-54
2023/03/13 00:33:59;;;;;;;3.42;1.30;;;10.80;99.90;;;;;;4829805;29;20058;-54
2023/03/13 00:36:32;;;;;;;2.45;1.50;;;10.80;99.90;;;;;;4821902;29;20061;-54
2023/03/13 00:39:03;;;;;;;2.70;1.80;;;10.90;99.90;;;;;;4827784;29;20048;-54
2023/03/13 00:41:31;;;;;;;1.50;1.40;;;10.80;99.90;;;;;;4821519;29;20065;-55
2023/03/13 00:43:59;;;;;;;4.18;1.30;;;10.80;99.90;;;;;;4826150;29;20054;-55
2023/03/13 00:46:28;;;;;;;1.40;1.30;;;10.80;99.90;;;;;;4819150;29;20510;-55
2023/03/13 00:48:57;;;;;;;4.20;1.60;;;10.70;99.90;;;;;;4837415;29;20053;-55
2023/03/13 00:51:25;;;;;;;0.90;0.90;;;10.80;99.90;;;;;;4815994;29;20062;-55
2023/03/13 00:53:55;;;;;;;1.98;1.10;;;10.70;99.90;;;;;;4819444;29;20065;-56
2023/03/13 00:56:23;;;;;;;1.33;0.77;;;10.80;99.90;;;;;;4839838;29;20080;-55
2023/03/13 00:58:51;;;;;;;1.02;0.80;;;10.80;99.90;;;;;;4828795;29;20526;-54
2023/03/13 01:01:23;;;;;;;3.47;1.20;;;10.80;99.90;;;;;;4804481;29;20054;-55
2023/03/13 01:04:01;;;;;;;3.40;1.30;;;10.80;99.90;;;;;;4825246;29;20061;-55
2023/03/13 01:06:32;;;;;;;2.80;1.10;;;10.90;99.90;;;;;;4825481;29;20054;-54
2023/03/13 01:09:00;;;;;;;3.97;0.80;;;10.90;99.90;;;;;;4826179;29;20301;-55
2023/03/13 01:11:31;;;;;;;1.88;0.98;;;10.90;99.90;;;;;;4808490;29;20073;-55
2023/03/13 01:14:01;;;;;;;2.78;0.90;;;10.90;99.90;;;;;;4810199;29;20041;-55
2023/03/13 01:16:31;;;;;;;4.85;0.93;;;10.90;99.90;;;;;;4814408;29;20523;-54
2023/03/13 01:19:04;;;;;;;7.90;1.20;;;10.80;99.90;;;;;;4829338;29;20062;-56
2023/03/13 01:21:32;;;;;;;2.80;1.10;;;10.90;99.90;;;;;;4815802;29;20515;-55
2023/03/13 01:24:00;;;;;;;3.35;0.70;;;10.90;99.90;;;;;;4813726;29;20058;-56
2023/03/13 01:26:28;;;;;;;7.05;1.33;;;10.90;99.90;;;;;;4838836;29;20061;-56
2023/03/13 01:28:56;;;;;;;5.38;1.35;;;10.90;99.90;;;;;;4823888;29;20061;-56
2023/03/13 01:31:30;;;;;;;3.72;1.30;;;10.90;99.90;;;;;;4819691;29;20050;-55
2023/03/13 01:34:01;;;;;;;3.47;1.48;;;10.90;99.90;;;;;;4819563;29;20053;-55
2023/03/13 01:36:29;;;;;;;4.95;1.27;;;11.00;99.90;;;;;;4820673;29;20050;-56
2023/03/13 01:38:59;;;;;;;2.38;1.10;;;10.90;99.90;;;;;;4831351;29;20403;-55
2023/03/13 01:41:30;;;;;;;6.63;1.00;;;11.00;99.90;;;;;;4829428;29;20085;-55
2023/03/13 01:43:57;;;;;;;2.45;0.95;;;11.00;99.90;;;;;;4826875;29;20069;-55
2023/03/13 01:46:31;;;;;;;6.50;1.13;;;11.00;99.90;;;;;;4819953;29;20043;-55
2023/03/13 01:49:34;;;;;;;2.67;0.63;;;11.10;99.90;;;;;;4848408;29;20062;-56
2023/03/13 01:52:29;;;;;;;3.08;0.73;;;11.10;99.90;;;;;;4830341;29;20073;-55
2023/03/13 01:55:33;;;;;;;5.57;1.50;;;11.10;99.90;;;;;;4811138;29;20087;-56
2023/03/13 01:58:01;;;;;;;1.83;0.40;;;11.20;99.90;;;;;;4811498;29;20501;-54
2023/03/13 02:00:34;;;;;;;1.25;0.60;;;11.20;99.90;;;;;;4819968;29;20422;-55
2023/03/13 02:03:07;;;;;;;3.60;0.70;;;11.20;99.90;;;;;;4810842;29;20054;-55
2023/03/13 02:05:37;;;;;;;1.45;0.50;;;11.20;99.90;;;;;;4836460;29;20418;-57
2023/03/13 02:08:22;;;;;;;1.35;0.30;;;11.20;99.90;;;;;;4837011;29;20050;-58
2023/03/13 02:11:01;;;;;;;0.55;0.40;;;11.30;99.90;;;;;;4819181;29;20050;-53
2023/03/13 02:13:29;;;;;;;1.40;0.20;;;11.30;99.90;;;;;;4815426;29;20050;-56
2023/03/13 02:15:56;;;;;;;0.73;0.47;;;11.30;99.90;;;;;;4817746;29;20565;-56
2023/03/13 02:18:25;;;;;;;0.68;0.20;;;11.30;99.90;;;;;;4835439;29;20058;-55
2023/03/13 02:20:58;;;;;;;0.45;0.30;;;11.30;99.90;;;;;;4815667;29;20412;-54
2023/03/13 02:23:48;;;;;;;0.32;0.10;;;11.30;99.90;;;;;;4812307;29;20050;-57
2023/03/13 02:26:16;;;;;;;0.30;0.10;;;11.30;99.90;;;;;;4837015;29;20439;-54
2023/03/13 02:28:43;;;;;;;0.90;0.08;;;11.30;99.90;;;;;;4833116;29;20407;-55
2023/03/13 02:31:13;;;;;;;;;;;11.40;99.90;;;;;;4808519;29;20050;-55
2023/03/13 02:33:43;;;;;;;0.03;0.00;;;11.40;99.90;;;;;;4821939;29;19932;-55
2023/03/13 02:36:15;;;;;;;0.20;0.00;;;11.40;99.90;;;;;;4821885;29;20050;-54
2023/03/13 02:38:54;;;;;;;0.00;0.00;;;11.40;99.90;;;;;;4831254;29;20046;-55
2023/03/13 02:41:24;;;;;;;0.47;0.10;;;11.40;99.90;;;;;;4835550;29;20038;-56
2023/03/13 02:43:54;;;;;;;5.40;0.10;;;11.50;99.90;;;;;;4821641;29;20058;-56
2023/03/13 02:46:21;;;;;;;0.55;0.00;;;11.50;99.90;;;;;;4809943;29;20051;-56
2023/03/13 02:48:55;;;;;;;0.32;0.10;;;11.50;99.90;;;;;;4805248;29;20051;-56
2023/03/13 02:51:34;;;;;;;0.38;0.00;;;11.50;99.90;;;;;;4803548;29;20058;-56
2023/03/13 02:54:09;;;;;;;0.20;0.00;;;11.50;99.90;;;;;;4821747;29;20050;-54
2023/03/13 02:56:39;;;;;;;0.52;0.00;;;11.50;99.90;;;;;;4821634;29;20047;-55
2023/03/13 02:59:08;;;;;;;0.00;0.00;;;11.50;99.90;;;;;;4819705;29;20415;-55
2023/03/13 03:01:39;;;;;;;0.10;0.00;;;11.50;99.90;;;;;;4821677;29;20046;-57
2023/03/13 03:04:06;;;;;;;0.85;0.10;;;11.60;99.90;;;;;;4822730;29;20051;-58
2023/03/13 03:06:34;;;;;;;1.08;0.10;;;11.60;99.90;;;;;;4821250;29;19925;-56
2023/03/13 03:09:04;;;;;;;0.63;0.10;;;11.60;99.90;;;;;;4813429;29;20042;-56
2023/03/13 03:11:35;;;;;;;0.55;0.10;;;11.60;99.90;;;;;;4822499;29;20297;-55
2023/03/13 03:14:08;;;;;;;0.10;0.00;;;11.60;99.90;;;;;;4822628;29;20062;-55
2023/03/13 03:16:40;;;;;;;0.00;0.00;;;11.60;99.90;;;;;;4823705;29;20415;-55
2023/03/13 03:19:09;;;;;;;0.45;0.10;;;11.70;99.90;;;;;;4839632;29;20045;-55
2023/03/13 03:21:37;;;;;;;0.20;0.05;;;11.60;99.90;;;;;;4839714;29;20046;-56
2023/03/13 03:24:06;;;;;;;0.63;0.03;;;11.60;99.90;;;;;;4805605;29;20046;-55
2023/03/13 03:26:34;;;;;;;0.90;0.15;;;11.60;99.90;;;;;;4820691;29;20519;-54
2023/03/13 03:29:07;;;;;;;1.20;0.10;;;11.70;99.90;;;;;;4821402;29;20043;-55
2023/03/13 03:31:36;;;;;;;1.75;0.17;;;11.60;99.90;;;;;;4815615;29;20111;-55
2023/03/13 03:34:04;;;;;;;0.30;0.20;;;11.60;99.90;;;;;;4819516;29;20058;-55
2023/03/13 03:36:31;;;;;;;2.05;0.30;;;11.60;99.90;;;;;;4821293;29;20479;-55
2023/03/13 03:39:00;;;;;;;6.40;0.30;;;11.60;99.90;;;;;;4805494;29;20082;-54
2023/03/13 03:41:29;;;;;;;3.17;0.90;;;11.60;99.90;;;;;;4820774;29;20409;-56
2023/03/13 03:43:58;;;;;;;1.42;0.30;;;11.70;99.90;;;;;;4821198;29;20133;-55
2023/03/13 03:46:33;;;;;;;2.05;0.40;;;11.60;99.90;;;;;;4822455;29;20057;-54
2023/03/13 03:49:01;;;;;;;8.02;1.00;;;11.60;99.90;;;;;;4817964;29;20046;-55
2023/03/13 03:51:29;;;;;;;4.90;1.35;;;11.60;99.90;;;;;;4806818;29;20061;-56
2023/03/13 03:53:57;;;;;;;2.85;0.68;;;11.60;99.90;;;;;;4822312;29;20038;-55
2023/03/13 03:56:24;;;;;;;5.63;0.88;;;11.70;99.90;;;;;;4824417;29;20054;-56
2023/03/13 03:58:55;;;;;;;8.32;1.20;;;11.60;99.90;;;;;;4824159;29;20042;-54
2023/03/13 04:01:36;;;;;;;5.95;0.90;;;11.60;99.90;;;;;;4824283;29;20062;-55
2023/03/13 04:04:04;;;;;;;5.80;0.77;;;11.60;99.90;;;;;;4823441;29;20046;-55
2023/03/13 04:06:32;;;;;;;8.88;1.20;;;11.50;99.90;;;;;;4824185;29;20054;-55
2023/03/13 04:09:01;;;;;;;6.13;1.50;;;11.50;99.90;;;;;;4816391;29;20045;-55
2023/03/13 04:11:30;;;;;;;8.45;1.23;;;11.50;99.90;;;;;;4804756;29;20519;-57
2023/03/13 04:13:57;;;;;;;7.95;1.02;;;11.60;99.90;;;;;;4821696;29;20053;-54
2023/03/13 04:16:26;;;;;;;8.25;1.00;;;11.50;99.90;;;;;;4824453;29;20632;-55
2023/03/13 04:18:55;;;;;;;7.75;1.50;;;11.60;99.90;;;;;;4842313;29;20124;-56
2023/03/13 04:21:25;;;;;;;6.03;1.45;;;11.60;99.90;;;;;;4842612;29;20054;-55
2023/03/13 04:23:58;;;;;;;5.78;1.48;;;;;;;;;;4813147;29;20058;-56
2023/03/13 04:26:27;;;;;;;5.05;1.20;;;11.70;99.90;;;;;;4805328;29;20057;-56
2023/03/13 04:28:56;;;;;;;7.75;1.15;;;11.60;99.90;;;;;;4805927;29;20046;-56
2023/03/13 04:31:39;;;;;;;10.10;1.27;;;11.70;99.90;;;;;;4817017;29;20712;-55
2023/03/13 04:34:36;;;;;;;8.70;0.90;;;11.70;99.90;;;;;;4836637;29;20431;-56
2023/03/13 04:37:21;;;;;;;6.05;1.33;;;11.60;99.90;;;;;;4807012;29;20061;-55
2023/03/13 04:39:58;;;;;;;8.52;1.10;;;11.60;99.90;;;;;;4806948;29;20047;-55
2023/03/13 04:42:57;;;;;;;10.25;1.10;;;11.60;99.90;;;;;;4818030;29;20050;-57
2023/03/13 04:45:54;;;;;;;7.78;1.13;;;11.60;99.90;;;;;;4831423;29;20524;-56
2023/03/13 04:48:22;;;;;;;6.97;1.20;;;11.60;99.90;;;;;;4839972;29;20057;-56
2023/03/13 04:51:12;;;;;;;8.07;1.50;;;11.60;99.90;;;;;;4841959;29;20050;-56
2023/03/13 04:53:56;;;;;;;3.38;1.00;;;11.60;99.90;;;;;;4827915;29;20057;-58
2023/03/13 04:56:35;;;;;;;17.00;1.50;;;11.60;99.90;;;;;;4823330;29;20380;-56
2023/03/13 04:59:25;;;;;;;15.40;1.40;;;11.60;99.90;;;;;;4824606;29;20059;-55
2023/03/13 05:02:12;;;;;;;5.90;1.45;;;11.60;99.90;;;;;;4819836;29;20499;-56
2023/03/13 05:05:06;;;;;;;13.90;1.48;;;11.70;99.90;;;;;;4830059;29;20054;-55
2023/03/13 05:07:53;;;;;;;14.73;1.50;;;11.70;99.90;;;;;;4811061;29;20047;-55
2023/03/13 05:10:45;;;;;;;13.15;2.30;;;11.70;99.90;;;;;;4806323;29;20058;-56
2023/03/13 05:13:13;;;;;;;10.98;1.88;;;11.70;99.90;;;;;;4813326;29;20058;-57
2023/03/13 05:16:10;;;;;;;12.57;2.15;;;11.70;99.90;;;;;;4822986;29;20059;-56
2023/03/13 05:18:56;;;;;;;9.07;1.58;;;11.70;99.90;;;;;;4842541;29;20042;-56
2023/03/13 05:21:38;;;;;;;14.55;2.75;;;11.70;99.90;;;;;;4842630;29;20058;-57
2023/03/13 05:24:35;;;;;;;17.15;1.95;;;11.80;99.90;;;;;;4822431;29;20050;-55
2023/03/13 05:27:11;;;;;;;10.52;1.65;;;11.80;99.90;;;;;;4804717;29;20055;-56
2023/03/13 05:29:50;;;;;;;12.57;1.83;;;11.80;99.90;;;;;;4805496;29;20042;-57
2023/03/13 05:32:38;;;;;;;14.35;2.80;;;11.80;99.90;;;;;;4823674;29;20063;-56
2023/03/13 05:35:34;;;;;;;15.13;1.92;;;11.70;99.90;;;;;;4823929;29;20066;-55
2023/03/13 05:38:37;;;;;;;18.52;1.98;;;11.70;99.90;;;;;;4826689;29;20047;-55
2023/03/13 05:41:22;;;;;;;17.17;1.95;;;11.70;99.90;;;;;;4822577;29;20058;-55
2023/03/13 05:43:53;;;;;;;17.17;3.00;;;11.70;99.90;;;;;;4823507;29;20053;-56
2023/03/13 05:46:32;;;;;;;15.80;2.50;;;11.70;99.90;;;;;;4824523;29;20406;-55
2023/03/13 05:49:21;;;;;;;24.83;3.53;;;11.70;99.90;;;;;;4821936;29;20920;-58
2023/03/13 05:52:03;;;;;;;16.52;2.25;;;11.70;99.90;;;;;;4802939;29;20692;-55
2023/03/13 05:54:44;;;;;;;20.30;2.50;;;11.60;99.90;;;;;;4819030;29;20837;-56
2023/03/13 05:57:18;;;;;;;21.25;3.50;;;11.60;99.90;;;;;;4823182;29;20666;-54
2023/03/13 06:00:16;;;;;;;17.13;2.60;;;11.50;99.90;;;;;;4841114;29;20085;-55
2023/03/13 06:02:58;;;;;;;23.35;3.28;;;11.50;99.90;;;;;;4811339;29;20089;-55
2023/03/13 06:05:33;;;;;;;18.40;2.10;;;11.50;99.90;;;;;;4814011;29;20051;-55
2023/03/13 06:08:06;;;;;;;7.38;1.48;;;11.40;99.90;;;;;;4825520;29;20061;-56
2023/03/13 06:10:33;;;;;;;18.02;2.10;;;11.30;99.90;;;;;;4837450;29;20054;-55
2023/03/13 06:13:01;;;;;;;10.73;1.90;;;11.20;99.90;;;;;;4833977;29;20057;-54
2023/03/13 06:15:53;;;;;;;21.40;2.97;;;10.80;99.90;;;;;;4817914;29;20503;-55
2023/03/13 06:18:37;;;;;;;9.55;1.80;;;10.80;99.90;;;;;;4832444;29;20041;-56
2023/03/13 06:21:05;;;;;;;13.23;2.40;;;10.50;99.90;;;;;;4814438;29;20049;-59
2023/03/13 06:23:32;;;;;;;12.60;2.33;;;10.50;99.90;;;;;;4816639;29;20046;-55
2023/03/13 06:26:00;;;;;;;19.13;2.35;;;10.50;99.90;;;;;;4815533;29;20063;-55
2023/03/13 06:28:28;;;;;;;16.90;3.05;;;10.40;99.90;;;;;;4816916;29;20061;-55
2023/03/13 06:31:03;;;;;;;8.65;1.63;;;10.40;99.90;;;;;;4817833;29;20055;-55
2023/03/13 06:33:32;;;;;;;12.57;1.98;;;10.40;99.90;;;;;;4826266;29;20065;-54
2023/03/13 06:36:01;;;;;;;15.15;2.58;;;10.40;99.90;;;;;;4816678;29;20065;-56
2023/03/13 06:38:29;;;;;;;12.90;1.88;;;10.50;99.90;;;;;;4809823;29;20054;-56
2023/03/13 06:40:57;;;;;;;14.63;2.97;;;10.50;99.90;;;;;;4813260;29;20054;-55
2023/03/13 06:43:25;;;;;;;9.13;1.90;;;10.60;99.90;;;;;;4821187;29;20057;-54
2023/03/13 06:45:53;;;;;;;15.75;2.28;;;10.60;99.90;;;;;;4807780;29;20051;-55
2023/03/13 06:48:23;;;;;;;16.75;3.70;;;10.60;99.90;;;;;;4827804;29;20046;-55
2023/03/13 06:50:51;;;;;;;15.93;2.53;;;10.50;99.90;;;;;;4827778;29;20042;-56
2023/03/13 06:53:19;;;;;;;12.50;2.47;;;10.40;99.90;;;;;;4826050;29;20061;-54
2023/03/13 06:55:50;;;;;;;9.77;1.95;;;10.20;99.90;;;;;;4814658;29;20506;-55
2023/03/13 06:58:17;;;;;;;20.13;2.47;;;10.20;99.90;;;;;;4821150;29;20057;-55
2023/03/13 07:01:04;;;;;;;22.45;3.35;;;10.20;99.90;;;;;;4835614;29;20050;-55
2023/03/13 07:03:32;;;;;;;18.02;3.17;;;10.10;99.90;;;;;;4832206;29;20046;-56
2023/03/13 07:06:00;;;;;;;20.42;3.25;;;10.00;99.90;;;;;;4811080;29;20058;-57
2023/03/13 07:08:28;;;;;;;21.45;3.97;;;9.90;99.90;;;;;;4818660;29;20621;-57
2023/03/13 07:11:01;;;;;;;20.73;2.40;;;9.90;99.90;;;;;;4801129;29;20043;-56
2023/03/13 07:13:29;;;;;;;18.75;2.85;;;9.80;99.90;;;;;;4821785;29;20046;-56
2023/03/13 07:16:06;;;;;;;19.20;2.55;;;9.80;99.90;;;;;;4826797;29;20054;-57
2023/03/13 07:18:34;;;;;;;20.63;2.22;;;9.80;99.90;;;;;;4822978;29;20047;-57
2023/03/13 07:21:06;;;;;;;23.05;2.67;;;9.80;99.90;;;;;;4803488;29;20054;-57
2023/03/13 07:23:34;;;;;;;18.67;3.55;;;9.70;99.90;;;;;;4810190;29;20042;-56
2023/03/13 07:26:06;;;;;;;14.70;2.20;;;9.60;99.90;;;;;;4813482;29;20047;-56
2023/03/13 07:28:34;;;;;;;11.85;2.80;;;9.60;99.90;;;;;;4830874;29;20054;-56
2023/03/13 07:31:07;;;;;;;24.95;3.38;;;9.60;99.90;;;;;;4829218;29;20053;-55
2023/03/13 07:33:34;;;;;;;17.70;3.70;;;9.60;99.90;;;;;;4829872;29;20053;-56
2023/03/13 07:36:03;;;;;;;22.40;2.40;;;9.60;99.90;;;;;;4814132;29;20042;-56
2023/03/13 07:38:31;;;;;;;19.80;3.83;;;9.60;99.90;;;;;;4832510;29;20069;-56
2023/03/13 07:40:58;;;;;;;26.38;2.42;;;9.60;99.90;;;;;;4821792;29;20054;-56
2023/03/13 07:43:28;;;;;;;23.48;2.50;;;9.60;99.90;;;;;;4833778;29;20061;-56
2023/03/13 07:46:01;;;;;;;14.32;1.85;;;9.50;99.90;;;;;;4821662;29;20050;-56
2023/03/13 07:48:33;;;;;;;9.57;1.42;;;9.50;99.90;;;;;;4835295;29;20407;-56
2023/03/13 07:51:02;;;;;;;9.55;1.42;;;9.50;99.90;;;;;;4805104;29;20046;-56
2023/03/13 07:53:30;;;;;;;15.63;1.70;;;9.50;99.90;;;;;;4830465;29;20057;-56
2023/03/13 07:56:03;;;;;;;9.93;1.45;;;9.60;99.90;;;;;;4840645;29;20054;-58
2023/03/13 07:58:33;;;;;;;12.07;2.28;;;9.60;99.90;;;;;;4827412;29;20479;-57
2023/03/13 08:01:06;;;;;;;11.38;1.52;;;9.70;99.90;;;;;;4835019;29;20078;-56
2023/03/13 08:03:35;;;;;;;6.47;1.70;;;9.70;99.90;;;;;;4810494;29;20062;-56
2023/03/13 08:06:06;;;;;;;11.68;1.35;;;9.80;99.90;;;;;;4800648;29;20900;-56
2023/03/13 08:08:35;;;;;;;7.28;1.20;;;9.80;99.90;;;;;;4807294;29;20062;-56
2023/03/13 08:11:06;;;;;;;10.88;1.83;;;9.90;99.90;;;;;;4813968;29;20062;-56
2023/03/13 08:13:36;;;;;;;10.23;1.48;;;9.90;99.90;;;;;;4827910;29;20050;-55
2023/03/13 08:16:05;;;;;;;7.80;1.50;;;9.90;99.90;;;;;;4835836;29;20057;-56
2023/03/13 08:18:34;;;;;;;9.30;1.20;;;9.90;99.90;;;;;;4823828;29;20074;-56
2023/03/13 08:21:06;;;;;;;9.10;1.48;;;9.90;99.90;;;;;;4818952;29;20053;-56
2023/03/13 08:23:34;;;;;;;7.05;1.20;;;9.90;99.90;;;;;;4820217;29;20065;-58
2023/03/13 08:26:08;;;;;;;6.70;1.20;;;9.90;99.90;;;;;;4799654;29;20047;-56
2023/03/13 08:28:36;;;;;;;10.45;1.92;;;9.80;99.90;;;;;;4824263;29;20049;-57
2023/03/13 08:31:15;;;;;;;11.35;1.00;;;9.80;99.90;;;;;;4805038;29;20050;-57
2023/03/13 08:33:45;;;;;;;13.25;1.50;;;9.80;99.90;;;;;;4817491;29;20058;-57
2023/03/13 08:36:42;;;;;;;4.57;0.80;;;9.80;99.90;;;;;;4803306;29;20055;-59
2023/03/13 08:39:12;;;;;;;4.45;1.45;;;9.70;99.90;;;;;;4807422;29;20058;-58
2023/03/13 08:41:42;;;;;;;9.30;1.17;;;9.70;99.90;;;;;;4804662;29;20043;-57
2023/03/13 08:44:13;;;;;;;;;;;9.80;99.90;;;;;;4815001;29;20073;-55
2023/03/13 08:46:43;;;;;;;6.40;1.00;;;9.70;99.90;;;;;;4810720;29;19924;-55
2023/03/13 08:49:16;;;;;;;8.18;0.90;;;9.80;99.90;;;;;;4811832;29;20047;-57
2023/03/13 08:51:44;;;;;;;10.27;0.82;;;9.80;99.90;;;;;;4802179;29;20050;-57
2023/03/13 08:54:11;;;;;;;6.82;0.65;;;9.70;99.90;;;;;;4811686;29;20050;-56
2023/03/13 08:56:40;;;;;;;6.47;0.85;;;10.10;99.90;;;;;;4802161;29;20531;-56
2023/03/13 08:59:08;;;;;;;5.30;0.70;;;10.10;99.90;;;;;;4803373;29;20063;-58
2023/03/13 09:01:36;;;;;;;4.35;1.02;;;10.10;99.90;;;;;;4806267;29;20058;-56
2023/03/13 09:04:04;;;;;;;4.82;0.75;;;10.20;99.90;;;;;;4815411;29;20055;-56
2023/03/13 09:06:34;;;;;;;4.93;1.77;;;10.20;99.90;;;;;;4800243;29;20043;-56
2023/03/13 09:09:04;;;;;;;8.20;1.05;;;10.20;99.90;;;;;;4807400;29;21763;-57
2023/03/13 09:11:32;;;;;;;8.23;0.90;;;10.20;99.90;;;;;;4820882;29;20054;-58
2023/03/13 09:14:00;;;;;;;6.13;1.40;;;10.20;99.90;;;;;;4826235;29;20403;-58
2023/03/13 09:16:30;;;;;;;4.05;0.88;;;10.20;99.90;;;;;;4810190;29;20058;-58
2023/03/13 09:18:58;;;;;;;2.05;0.43;;;10.20;99.90;;;;;;4807674;29;20058;-56
2023/03/13 09:21:33;;;;;;;3.55;0.40;;;10.10;99.90;;;;;;4802626;29;20054;-58
2023/03/13 09:24:01;;;;;;;4.90;0.50;;;10.10;99.90;;;;;;4812062;29;20054;-58
2023/03/13 09:26:29;;;;;;;7.25;2.08;;;10.10;99.90;;;;;;4803824;29;20047;-58
2023/03/13 09:28:57;;;;;;;3.88;0.40;;;10.10;99.90;;;;;;4824310;29;20046;-58
2023/03/13 09:31:28;;;;;;;2.90;0.40;;;10.10;99.90;;;;;;4815511;29;20050;-55
2023/03/13 09:33:56;;;;;;;6.28;0.32;;;10.10;99.90;;;;;;4834647;29;20057;-58
2023/03/13 09:36:25;;;;;;;3.38;0.20;;;10.10;99.90;;;;;;4838884;29;20042;-58
2023/03/13 09:38:56;;;;;;;2.22;0.22;;;10.10;99.90;;;;;;4818671;29;20050;-58
2023/03/13 09:41:33;;;;;;;1.80;0.40;;;10.00;99.90;;;;;;4802729;29;20405;-56
2023/03/13 09:44:13;;;;;;;3.10;0.50;;;10.00;99.90;;;;;;4832472;29;20058;-56
2023/03/13 09:46:44;;;;;;;1.75;0.63;;;10.00;99.90;;;;;;4818848;29;20049;-57
2023/03/13 09:49:36;;;;;;;2.17;0.40;;;9.90;99.90;;;;;;4803219;29;20066;-57
2023/03/13 09:52:16;;;;;;;2.90;0.73;;;9.90;99.90;;;;;;4810399;29;20053;-57
2023/03/13 09:55:11;;;;;;;5.88;0.40;;;9.90;99.90;;;;;;4819875;29;20058;-57
2023/03/13 09:58:17;;;;;;;3.33;0.57;;;9.90;99.90;;;;;;4810268;29;20054;-56
2023/03/13 10:00:57;;;;;;;2.25;0.40;;;9.90;99.90;;;;;;4803689;29;20055;-57
2023/03/13 10:03:29;;;;;;;2.80;0.28;;;9.80;99.90;;;;;;4824084;29;20049;-58
2023/03/13 10:06:21;;;;;;;2.92;0.20;;;9.80;99.90;;;;;;4838638;29;20506;-57
2023/03/13 10:08:49;;;;;;;1.63;0.28;;;9.80;99.90;;;;;;4812449;29;20055;-57
2023/03/13 10:11:28;;;;;;;3.10;0.30;;;9.80;99.90;;;;;;4805379;29;20178;-57
2023/03/13 10:14:06;;;;;;;1.35;0.25;;;9.90;99.90;;;;;;4820585;29;20057;-57
2023/03/13 10:16:58;;;;;;;1.30;0.50;;;9.90;99.90;;;;;;4821575;29;20058;-57
2023/03/13 10:19:36;;;;;;;2.63;0.22;;;9.90;99.90;;;;;;4824710;29;20057;-57
2023/03/13 10:22:19;;;;;;;3.60;0.57;;;10.00;99.90;;;;;;4819380;29;20519;-57
2023/03/13 10:24:58;;;;;;;2.80;0.45;;;10.00;99.90;;;;;;4816478;29;20054;-58
2023/03/13 10:27:26;;;;;;;0.85;0.40;;;10.10;99.90;;;;;;4803818;29;20133;-58
2023/03/13 10:29:53;;;;;;;1.70;0.30;;;10.20;99.90;;;;;;4817006;29;20404;-58
2023/03/13 10:32:21;;;;;;;1.35;0.10;;;9.90;99.90;;;;;;4801601;29;21107;-58
2023/03/13 10:34:49;;;;;;;0.82;0.30;;;10.20;99.90;;;;;;4826019;29;20053;-58
2023/03/13 10:37:24;;;;;;;1.45;0.20;;;10.20;99.90;;;;;;4821497;29;20057;-58
2023/03/13 10:39:52;;;;;;;2.15;0.40;;;10.30;99.90;;;;;;4828753;29;20054;-59
2023/03/13 10:42:26;;;;;;;1.00;0.73;;;10.30;99.90;;;;;;4821912;29;20076;-58
2023/03/13 10:45:04;;;;;;;1.95;0.28;;;10.30;99.90;;;;;;4835047;29;20065;-58
2023/03/13 10:47:33;;;;;;;0.52;0.10;;;10.30;99.90;;;;;;4835278;29;20073;-58
2023/03/13 10:50:03;;;;;;;2.60;0.30;;;10.30;99.90;;;;;;4818397;29;20046;-59
2023/03/13 10:52:49;;;;;;;3.15;0.25;;;10.40;99.90;;;;;;4808963;29;20073;-58
2023/03/13 10:55:20;;;;;;;2.30;0.30;;;10.40;99.90;;;;;;4800789;29;20415;-57
2023/03/13 10:58:03;;;;;;;7.07;0.70;;;10.40;99.90;;;;;;4823145;29;20165;-56
2023/03/13 11:00:37;;;;;;;3.28;0.40;;;10.40;99.90;;;;;;4827295;29;20051;-57
2023/03/13 11:03:13;;;;;;;3.60;0.47;;;10.30;99.90;;;;;;4823313;29;20057;-57
2023/03/13 11:05:42;;;;;;;6.80;1.02;;;10.30;99.90;;;;;;4824078;29;20050;-57
2023/03/13 11:08:12;;;;;;;5.63;0.60;;;10.30;99.90;;;;;;4827030;29;20050;-57
2023/03/13 11:10:55;;;;;;;3.63;0.70;;;10.20;99.90;;;;;;4810385;29;20069;-56
2023/03/13 11:13:42;;;;;;;6.88;1.50;;;10.30;99.90;;;;;;4814316;29;20070;-57
2023/03/13 11:16:20;;;;;;;6.57;0.95;;;10.20;99.90;;;;;;4804108;29;20189;-58
2023/03/13 11:19:12;;;;;;;2.20;0.50;;;10.30;99.90;;;;;;4813043;29;20065;-58
2023/03/13 11:21:47;;;;;;;5.13;0.73;;;10.30;99.90;;;;;;4819329;29;20391;-57
2023/03/13 11:24:31;;;;;;;2.30;0.32;;;10.30;99.90;;;;;;4828921;29;20069;-58
2023/03/13 11:27:02;;;;;;;2.30;0.50;;;10.30;99.90;;;;;;4803506;29;20391;-57
2023/03/13 11:29:52;;;;;;;5.60;0.70;;;10.30;99.90;;;;;;4802912;29;20054;-57
2023/03/13 11:32:36;;;;;;;5.20;0.70;;;10.30;99.90;;;;;;4821115;29;20059;-58
2023/03/13 11:35:16;;;;;;;5.55;1.25;;;10.30;99.90;;;;;;4809156;29;20043;-56
2023/03/13 11:37:45;;;;;;;4.40;0.52;;;10.30;99.90;;;;;;4803359;29;20054;-57
2023/03/13 11:40:31;;;;;;;7.75;1.00;;;10.20;99.90;;;;;;4805629;29;20051;-56
2023/03/13 11:43:22;;;;;;;10.77;1.35;;;10.30;99.90;;;;;;4814567;29;20504;-57
2023/03/13 11:46:07;;;;;;;4.10;0.77;;;10.30;99.90;;;;;;4837593;29;20507;-56
2023/03/13 11:49:03;;;;;;;6.15;1.13;;;10.30;99.90;;;;;;4817461;29;20054;-56
2023/03/13 11:51:43;;;;;;;11.52;1.23;;;10.30;99.90;;;;;;4800618;29;20420;-57
2023/03/13 11:54:46;;;;;;;7.90;1.10;;;10.30;99.90;;;;;;4813805;29;20058;-58
2023/03/13 11:57:40;;;;;;;13.23;2.28;;;10.40;99.90;;;;;;4866112;29;20146;-57
2023/03/13 12:00:23;;;;;;;6.13;1.20;;;10.40;99.90;;;;;;4804262;29;20051;-57
2023/03/13 12:03:16;;;;;;;6.97;1.50;;;10.30;99.90;;;;;;4812844;29;20065;-57
2023/03/13 12:05:56;;;;;;;16.10;4.18;;;10.30;99.90;;;;;;4802028;29;20058;-58
2023/03/13 12:08:44;;;;;;;12.85;1.55;;;10.30;99.90;;;;;;4804329;29;20055;-56
2023/03/13 12:11:12;;;;;;;3.97;1.27;;;10.20;99.90;;;;;;4797899;29;20078;-56
2023/03/13 12:13:48;;;;;;;7.88;1.40;;;10.20;99.90;;;;;;4805936;29;20043;-57
2023/03/13 12:16:22;;;;;;;7.60;1.42;;;10.20;99.90;;;;;;4808190;29;20054;-58
2023/03/13 12:18:52;;;;;;;6.40;1.23;;;10.20;99.90;;;;;;4813858;29;20058;-56
2023/03/13 12:21:22;;;;;;;8.40;1.50;;;10.40;99.90;;;;;;4821200;29;20054;-56
2023/03/13 12:24:03;;;;;;;16.33;2.22;;;10.40;99.90;;;;;;4828550;29;20065;-57
2023/03/13 12:26:45;;;;;;;8.18;1.00;;;10.50;99.90;;;;;;4815461;29;20411;-56
2023/03/13 12:29:28;;;;;;;6.93;1.67;;;10.60;99.90;;;;;;4835762;29;20561;-57
2023/03/13 12:32:22;;;;;;;8.32;1.90;;;10.60;99.90;;;;;;4827014;29;20496;-56
2023/03/13 12:35:08;;;;;;;11.68;2.05;;;10.60;99.90;;;;;;4834632;29;20667;-56
2023/03/13 12:37:41;;;;;;;7.15;1.38;;;10.60;99.90;;;;;;4829738;29;20046;-58
2023/03/13 12:40:30;;;;;;;9.15;0.95;;;10.80;99.90;;;;;;4812713;29;20050;-58
2023/03/13 12:43:20;;;;;;;11.10;1.67;;;10.90;99.90;;;;;;4817284;29;20050;-58
2023/03/13 12:45:57;;;;;;;7.25;0.85;;;11.00;99.90;;;;;;4806767;29;20062;-57
2023/03/13 12:48:42;;;;;;;7.28;0.98;;;11.20;99.90;;;;;;4814907;29;20050;-57
2023/03/13 12:51:56;;;;;;;4.78;0.90;;;11.30;99.90;;;;;;4815533;29;20058;-57
2023/03/13 12:54:23;;;;;;;9.85;1.25;;;11.50;99.90;;;;;;4832317;29;20054;-57
2023/03/13 12:57:14;;;;;;;9.07;1.25;;;11.50;99.90;;;;;;4820269;29;20046;-58
2023/03/13 12:59:54;;;;;;;4.03;1.23;;;11.60;99.90;;;;;;4814312;29;20051;-58
2023/03/13 13:02:26;;;;;;;8.65;1.42;;;11.60;99.90;;;;;;4807545;29;20146;-58
2023/03/13 13:04:56;;;;;;;10.20;1.67;;;11.60;99.90;;;;;;4839379;29;20050;-58
2023/03/13 13:07:27;;;;;;;8.60;1.42;;;11.60;99.90;;;;;;4817330;29;20050;-60
2023/03/13 13:10:09;;;;;;;5.75;1.80;;;11.60;99.90;;;;;;4821744;29;20058;-58
2023/03/13 13:12:38;;;;;;;5.68;1.52;;;11.60;99.90;;;;;;4823903;29;20049;-57
2023/03/13 13:15:29;;;;;;;6.25;1.13;;;11.50;99.90;;;;;;4828929;29;20046;-57
2023/03/13 13:18:24;;;;;;;6.93;2.05;;;11.50;99.90;;;;;;4818547;29;20061;-60
2023/03/13 13:21:03;;;;;;;6.40;1.35;;;11.50;99.90;;;;;;4821277;29;20411;-57
2023/03/13 13:23:42;;;;;;;4.63;0.88;;;11.50;99.90;;;;;;4822957;29;20120;-58
2023/03/13 13:26:25;;;;;;;6.28;0.70;;;11.50;99.90;;;;;;4822564;29;20050;-59
2023/03/13 13:28:53;;;;;;;8.18;0.77;;;11.40;99.90;;;;;;4819624;29;20050;-58